Pagrindinis puslapis
METAR-TAF:

METAR-TAF

Oro uostai :

Heliport

Værøy, Norvegija

platuma: 67-39-16N, ilguma: 12-43-37E, Aukštis: 5 m

Dabartinis oras

Ataskaita buvo paskelbta 15 valandos ir 48 minutes, ne 13:50 UTC
Vėjas 18 kt iš Pietvakarių
Temperatūra 13°C
Drėgmė 88%
Slėgis 1006 hPa
Matomumas 10 km arba daugiau
Apsiniaukę ne aukštis 700 ft
Liūtis kaimynystėje

METAR: ENVR 101350Z 22018KT 9999 VCSH OVC007 13/11 Q1006

Laikas: 07:38 (05:38 UTC)


TAF: trūkstamas

Orai ataskaitas ir orų prognozės (METAR, TAF).

turimą stotys yra geltonos ir raudonos taškus žemėlapyje.

Perkelti pele per norėdami pamatyti stoties vardą.

Tada spustelėkite, norėdami matyti oro stebėjimo ir prognozės.

Norėdami pakeisti žemėlapį: spustelėkite ant žalios mygtukų su juodo kryžiaus žemyn,; žalią mygtuką su brūkšneliu, jei norite nutolinti; arba žalių rodyklių gretimoms žemėlapius.


METAR-TAF: